Time;durP1;ratioP1;P1;durP2;ratioP2;P2;SDS_P1;SDS_P2;PMS_P1;PMS_P2;Temp;Humidity;BMP_temperature;BMP_pressure;BME280_temperature;BME280_humidity;BME280_pressure;Samples;Min_cycle;Max_cycle;Signal;HPM_P1;HPM_P2
2023/04/05 00:02:12;;;;;;;9.18;6.63;;;;;;;2.25;81.09;102576.06;6188187;23;20037;-77
2023/04/05 00:04:49;;;;;;;7.05;5.97;;;;;;;2.16;80.71;102567.56;6187676;23;20080;-77
2023/04/05 00:07:16;;;;;;;7.13;5.85;;;;;;;2.09;80.86;102566.63;6188480;23;20093;-76
2023/04/05 00:09:43;;;;;;;8.48;5.95;;;;;;;2.08;80.86;102565.84;6188308;23;20019;-76
2023/04/05 00:12:09;;;;;;;9.63;6.15;;;;;;;2.05;80.78;102568.38;6188110;23;20025;-76
2023/04/05 00:14:36;;;;;;;11.05;6.43;;;;;;;1.98;81.12;102569.00;6188326;23;20013;-76
2023/04/05 00:17:03;;;;;;;8.80;5.55;;;;;;;1.95;81.28;102567.03;6188570;23;20456;-76
2023/04/05 00:19:32;;;;;;;13.35;6.82;;;;;;;1.94;81.82;102566.28;6187457;23;20522;-76
2023/04/05 00:21:59;;;;;;;10.25;6.60;;;;;;;1.91;81.51;102559.06;6188520;23;20077;-76
2023/04/05 00:24:28;;;;;;;9.20;6.28;;;;;;;1.89;81.89;102563.13;6187805;23;20020;-76
2023/04/05 00:26:55;;;;;;;7.93;5.78;;;;;;;1.85;81.87;102562.25;6188484;23;20025;-76
2023/04/05 00:29:22;;;;;;;8.48;6.30;;;;;;;1.80;81.84;102560.63;6188029;23;20014;-77
2023/04/05 00:31:48;;;;;;;8.65;5.93;;;;;;;1.76;81.79;102559.78;6189052;23;20209;-76
2023/04/05 00:34:15;;;;;;;7.55;6.13;;;;;;;1.72;81.77;102561.53;6187526;23;20014;-76
2023/04/05 00:36:42;;;;;;;7.85;5.75;;;;;;;1.64;81.90;102560.56;6188400;23;20391;-76
2023/04/05 00:39:08;;;;;;;11.05;6.45;;;;;;;1.57;81.87;102557.00;6188190;23;20432;-76
2023/04/05 00:41:35;;;;;;;6.40;5.65;;;;;;;1.49;81.38;102556.03;6187751;23;20097;-76
2023/04/05 00:44:02;;;;;;;9.48;5.47;;;;;;;1.46;81.51;102554.09;6186647;23;20018;-76
2023/04/05 00:46:32;;;;;;;11.63;5.82;;;;;;;1.45;81.36;102543.91;6188024;23;20018;-76
2023/04/05 00:48:59;;;;;;;7.68;5.57;;;;;;;1.42;81.69;102547.19;6187677;23;20072;-76
2023/04/05 00:51:25;;;;;;;7.85;5.72;;;;;;;1.36;81.84;102546.66;6187655;23;20029;-76
2023/04/05 00:53:53;;;;;;;7.00;5.97;;;;;;;1.33;82.09;102545.47;6186659;23;20096;-76
2023/04/05 00:56:20;;;;;;;8.10;6.05;;;;;;;1.30;82.33;102540.13;6187471;23;20045;-76
2023/04/05 00:58:50;;;;;;;6.25;5.30;;;;;;;1.28;82.15;102543.06;6186456;23;20441;-76
2023/04/05 01:01:21;;;;;;;11.77;5.38;;;;;;;1.20;82.39;102538.72;6187682;23;20024;-76
2023/04/05 01:03:52;;;;;;;8.52;6.22;;;;;;;1.15;82.01;102538.97;6188831;23;20014;-76
2023/04/05 01:06:30;;;;;;;7.40;5.97;;;;;;;1.12;81.51;102531.75;6187884;23;20014;-76
2023/04/05 01:09:07;;;;;;;10.35;5.93;;;;;;;1.04;81.64;102535.25;6188146;23;20021;-76
2023/04/05 01:11:37;;;;;;;8.48;5.95;;;;;;;0.98;82.01;102537.34;6189372;23;20021;-76
2023/04/05 01:14:03;;;;;;;8.40;5.88;;;;;;;0.96;82.15;102541.38;6189448;23;20014;-76
2023/04/05 01:16:30;;;;;;;8.75;5.85;;;;;;;0.95;82.25;102530.13;6188009;23;20025;-76
2023/04/05 01:18:57;;;;;;;6.95;6.00;;;;;;;0.95;82.62;102529.38;6190112;23;20017;-76
2023/04/05 01:21:33;;;;;;;8.63;6.13;;;;;;;0.90;82.27;102519.09;6162294;23;20387;-76
2023/04/05 01:24:25;;;;;;;9.15;6.00;;;;;;;0.80;81.99;102522.19;6189568;23;20056;-76
2023/04/05 01:27:08;;;;;;;6.10;5.18;;;;;;;0.77;82.18;102526.22;6189732;23;20473;-76
2023/04/05 01:29:45;;;;;;;7.10;5.47;;;;;;;0.76;82.46;102523.94;6189375;23;20014;-76
2023/04/05 01:32:15;;;;;;;10.32;6.60;;;;;;;0.69;81.79;102518.47;6188302;23;20024;-76
2023/04/05 01:34:48;;;;;;;7.30;5.80;;;;;;;0.64;82.47;102516.81;6187337;23;20018;-75
2023/04/05 01:37:18;;;;;;;6.60;5.43;;;;;;;0.62;82.59;102519.78;6189490;23;20022;-76
2023/04/05 01:39:47;;;;;;;9.18;6.13;;;;;;;0.59;82.78;102506.56;6189497;23;20013;-76
2023/04/05 01:42:13;;;;;;;10.68;6.25;;;;;;;0.56;83.05;102515.06;6186661;23;20479;-76
2023/04/05 01:44:40;;;;;;;8.35;5.55;;;;;;;0.52;83.10;102512.34;6187423;23;20466;-76
2023/04/05 01:47:06;;;;;;;8.18;5.95;;;;;;;0.50;83.12;102522.38;6187210;23;20452;-76
2023/04/05 01:49:33;;;;;;;8.23;5.75;;;;;;;0.46;83.13;102515.50;6188616;23;20013;-76
2023/04/05 01:52:00;;;;;;;7.43;5.55;;;;;;;0.34;82.68;102516.28;6187698;23;20451;-76
2023/04/05 01:54:27;;;;;;;7.05;5.57;;;;;;;0.32;83.04;102516.59;6186843;23;20018;-76
2023/04/05 01:56:53;;;;;;;11.18;6.30;;;;;;;0.35;83.69;102507.31;6189287;23;20025;-76
2023/04/05 01:59:20;;;;;;;7.82;6.03;;;;;;;0.36;83.98;102508.09;6188482;23;20014;-76
2023/04/05 02:01:46;;;;;;;11.00;6.03;;;;;;;0.31;84.01;102501.97;6188808;23;20017;-76
2023/04/05 02:04:13;;;;;;;8.18;5.85;;;;;;;0.24;83.83;102498.34;6188723;23;20080;-76
2023/04/05 02:06:40;;;;;;;8.57;6.10;;;;;;;0.21;84.03;102502.38;6187375;23;20108;-76
2023/04/05 02:09:07;;;;;;;11.13;7.15;;;;;;;0.22;83.98;102498.69;6187214;23;20022;-76
2023/04/05 02:11:34;;;;;;;10.80;6.38;;;;;;;0.18;84.27;102495.19;6188912;23;20018;-76
2023/04/05 02:14:01;;;;;;;11.20;6.78;;;;;;;0.15;84.05;102493.19;6189055;23;20013;-76
2023/04/05 02:16:32;;;;;;;10.13;6.57;;;;;;;0.14;84.39;102490.91;6186245;23;20753;-76
2023/04/05 02:18:59;;;;;;;7.47;6.10;;;;;;;0.12;84.65;102487.84;6187451;23;20470;-76
2023/04/05 02:21:25;;;;;;;9.27;5.95;;;;;;;0.07;84.60;102491.44;6188587;23;20100;-76
2023/04/05 02:23:52;;;;;;;7.05;5.85;;;;;;;0.05;84.60;102483.13;6189293;23;20096;-76
2023/04/05 02:26:20;;;;;;;7.78;5.78;;;;;;;0.02;84.69;102483.78;6188809;23;20440;-76
2023/04/05 02:28:46;;;;;;;8.20;5.85;;;;;;;-0.01;84.00;102487.09;6189249;23;20013;-76
2023/04/05 02:31:13;;;;;;;8.10;5.75;;;;;;;-0.05;84.09;102481.72;6188131;23;20025;-76
2023/04/05 02:33:41;;;;;;;8.65;6.30;;;;;;;-0.11;84.09;102483.00;6188836;23;20045;-76
2023/04/05 02:36:10;;;;;;;9.45;6.25;;;;;;;-0.13;83.87;102479.19;6189344;23;20025;-76
2023/04/05 02:38:36;;;;;;;9.02;5.68;;;;;;;-0.12;84.51;102475.47;6186933;23;20022;-76
2023/04/05 02:41:06;;;;;;;12.25;5.93;;;;;;;-0.14;84.55;102472.44;6189027;23;20779;-76
2023/04/05 02:43:34;;;;;;;9.55;6.70;;;;;;;-0.21;84.47;102478.19;6185917;23;20096;-76
2023/04/05 02:46:00;;;;;;;6.72;5.80;;;;;;;-0.29;84.44;102471.19;6189379;23;20018;-76
2023/04/05 02:48:27;;;;;;;10.10;6.22;;;;;;;-0.28;84.27;102475.31;6188377;23;20020;-76
2023/04/05 02:50:54;;;;;;;6.78;5.38;;;;;;;-0.36;84.40;102471.69;6187524;23;20046;-76
2023/04/05 02:53:21;;;;;;;10.15;5.78;;;;;;;-0.36;84.97;102470.94;6186704;23;20459;-76
2023/04/05 02:55:56;;;;;;;8.40;6.13;;;;;;;-0.40;84.77;102460.34;6212327;23;20518;-76
2023/04/05 02:58:23;;;;;;;9.23;5.70;;;;;;;-0.40;85.16;102459.59;6187560;23;20092;-76
2023/04/05 03:00:53;;;;;;;13.32;6.00;;;;;;;-0.42;85.06;102453.94;6188974;23;20101;-77
2023/04/05 03:03:27;;;;;;;8.43;5.90;;;;;;;-0.40;85.85;102456.97;6186319;23;20021;-76
2023/04/05 03:06:00;;;;;;;10.07;5.80;;;;;;;-0.40;85.45;102459.59;6187168;23;20359;-76
2023/04/05 03:08:34;;;;;;;8.65;5.85;;;;;;;-0.45;85.01;102455.34;6186565;23;20418;-76
2023/04/05 03:11:06;;;;;;;8.90;5.78;;;;;;;-0.50;85.59;102455.53;6186852;23;20098;-76
2023/04/05 03:13:33;;;;;;;8.85;5.93;;;;;;;-0.50;85.13;102452.91;6187771;23;20064;-77
2023/04/05 03:16:03;;;;;;;7.65;5.75;;;;;;;-0.58;85.14;102447.75;6186929;23;20025;-75
2023/04/05 03:18:30;;;;;;;7.90;5.90;;;;;;;-0.60;85.56;102445.47;6186137;23;20021;-76
2023/04/05 03:21:03;;;;;;;8.02;6.18;;;;;;;-0.57;85.87;102449.28;6189022;23;20290;-77
2023/04/05 03:23:35;;;;;;;11.05;5.47;;;;;;;-0.64;86.01;102441.94;6187089;23;20021;-76
2023/04/05 03:26:03;;;;;;;8.18;5.60;;;;;;;-0.64;85.98;102439.34;6186833;23;20017;-74
2023/04/05 03:28:34;;;;;;;7.25;5.53;;;;;;;-0.64;86.46;102441.94;6186216;23;20534;-76
2023/04/05 03:31:04;;;;;;;10.13;5.97;;;;;;;-0.65;86.28;102450.88;6186926;23;20092;-77
2023/04/05 03:33:31;;;;;;;7.88;5.88;;;;;;;-0.66;86.23;102449.34;6161370;23;20103;-76
2023/04/05 03:35:58;;;;;;;8.85;5.93;;;;;;;-0.70;86.42;102441.38;6186999;23;20108;-77
2023/04/05 03:38:27;;;;;;;9.48;6.03;;;;;;;-0.71;86.28;102431.25;6185771;23;20435;-77
2023/04/05 03:41:05;;;;;;;8.73;6.28;;;;;;;-0.77;86.37;102435.91;6186519;23;20025;-76
2023/04/05 03:43:33;;;;;;;11.40;5.63;;;;;;;-0.81;86.47;102437.66;6185960;23;20021;-77
2023/04/05 03:46:00;;;;;;;8.07;6.10;;;;;;;-0.82;86.63;102438.72;6186815;23;20486;-76
2023/04/05 03:48:28;;;;;;;10.07;6.43;;;;;;;-0.84;86.65;102432.28;6186380;23;20049;-77
2023/04/05 03:50:55;;;;;;;9.75;5.55;;;;;;;-0.87;86.49;102435.53;6188666;23;20451;-77
2023/04/05 03:53:22;;;;;;;12.63;6.20;;;;;;;-0.88;86.49;102437.38;6188116;23;20014;-76
2023/04/05 03:55:52;;;;;;;10.63;6.40;;;;;;;-0.87;86.89;102435.53;6186020;23;20499;-77
2023/04/05 03:58:25;;;;;;;13.07;6.28;;;;;;;-0.88;87.36;102439.25;6186106;23;20467;-76
2023/04/05 04:00:55;;;;;;;9.52;5.90;;;;;;;-0.89;87.17;102440.31;6187075;23;20029;-77
2023/04/05 04:03:24;;;;;;;8.60;5.78;;;;;;;-0.91;87.20;102439.88;6185778;23;20040;-76
2023/04/05 04:05:51;;;;;;;9.15;6.22;;;;;;;-0.94;87.73;102435.28;6186770;23;20444;-76
2023/04/05 04:08:19;;;;;;;7.13;5.60;;;;;;;-0.94;87.55;102430.81;6186382;23;20018;-77
2023/04/05 04:10:47;;;;;;;8.23;5.75;;;;;;;-0.97;87.24;102428.06;6186264;23;20026;-77
2023/04/05 04:13:25;;;;;;;9.07;6.35;;;;;;;-1.05;86.78;102424.44;6186361;23;20530;-77
2023/04/05 04:16:24;;;;;;;12.32;5.90;;;;;;;-1.08;86.98;102433.69;6173703;23;20510;-77
2023/04/05 04:19:17;;;;;;;9.25;6.07;;;;;;;-1.13;87.29;102436.47;6186182;23;20021;-77
2023/04/05 04:21:59;;;;;;;9.65;5.78;;;;;;;-1.14;87.13;102437.56;6186988;23;20026;-76
2023/04/05 04:24:45;;;;;;;10.18;5.80;;;;;;;-1.17;87.22;102427.75;6188861;23;20113;-76
2023/04/05 04:27:34;;;;;;;9.02;5.45;;;;;;;-1.19;87.10;102435.13;6187431;23;20060;-76
2023/04/05 04:30:21;;;;;;;7.38;5.50;;;;;;;-1.20;86.79;102427.63;6171541;23;20097;-77
2023/04/05 04:33:07;;;;;;;11.63;5.10;;;;;;;-1.23;87.06;102429.03;6188744;23;20021;-76
2023/04/05 04:35:37;;;;;;;9.35;5.60;;;;;;;-1.28;87.16;102431.81;6188386;23;20022;-76
2023/04/05 04:38:28;;;;;;;6.63;5.55;;;;;;;-1.29;87.80;102430.28;6186302;23;20300;-75
2023/04/05 04:41:12;;;;;;;7.22;5.80;;;;;;;-1.25;87.48;102431.19;6187103;23;20076;-75
2023/04/05 04:44:04;;;;;;;9.35;5.85;;;;;;;-1.29;87.43;102432.16;6186702;23;20022;-75
2023/04/05 04:46:44;;;;;;;8.98;5.93;;;;;;;-1.35;87.33;102424.47;6166010;23;20396;-74
2023/04/05 04:49:20;;;;;;;8.82;5.63;;;;;;;-1.34;87.41;102430.47;6189037;23;20018;-74
2023/04/05 04:51:47;;;;;;;7.88;5.78;;;;;;;-1.36;87.77;102428.19;6189704;23;20013;-76
2023/04/05 04:54:15;;;;;;;8.10;5.93;;;;;;;-1.35;88.09;102429.72;6186895;23;20096;-76
2023/04/05 04:56:42;;;;;;;9.93;6.07;;;;;;;-1.35;87.96;102432.31;6188978;23;20021;-76
2023/04/05 04:59:08;;;;;;;13.05;6.20;;;;;;;-1.35;87.29;102426.34;6188984;23;20013;-76
2023/04/05 05:01:39;;;;;;;7.88;5.68;;;;;;;-1.38;87.74;102432.19;6188840;23;20559;-76
2023/04/05 05:04:08;;;;;;;12.23;5.88;;;;;;;-1.32;88.61;102427.53;6186901;23;20081;-76
2023/04/05 05:06:37;;;;;;;9.65;5.07;;;;;;;-1.30;88.57;102428.00;6187037;23;20466;-76
2023/04/05 05:09:04;;;;;;;11.90;6.10;;;;;;;-1.29;88.83;102430.28;6188822;23;20018;-77
2023/04/05 05:11:35;;;;;;;12.50;6.05;;;;;;;-1.28;88.71;102429.22;6163490;23;20021;-76
2023/04/05 05:14:05;;;;;;;9.77;5.78;;;;;;;-1.29;88.29;102419.84;6187475;23;20462;-77
2023/04/05 05:16:32;;;;;;;8.07;5.60;;;;;;;-1.26;88.05;102426.28;6189037;23;20055;-76
2023/04/05 05:18:58;;;;;;;12.80;6.35;;;;;;;-1.27;88.04;102420.28;6190191;23;20017;-77
2023/04/05 05:21:33;;;;;;;8.85;5.72;;;;;;;-1.28;87.96;102418.00;6188441;23;20502;-74
2023/04/05 05:24:01;;;;;;;12.07;6.00;;;;;;;-1.30;88.08;102420.94;6189285;23;20026;-75
2023/04/05 05:26:27;;;;;;;9.00;6.25;;;;;;;-1.25;88.29;102417.38;6189729;23;20017;-75
2023/04/05 05:28:55;;;;;;;10.13;5.72;;;;;;;-1.20;88.18;102420.53;6190067;23;20014;-75
2023/04/05 05:31:26;;;;;;;8.80;5.97;;;;;;;-1.15;87.91;102424.81;6187882;23;20024;-75
2023/04/05 05:33:53;;;;;;;8.43;5.97;;;;;;;-1.11;87.95;102415.25;6190079;23;20017;-75
2023/04/05 05:36:19;;;;;;;9.82;6.68;;;;;;;-1.07;87.89;102418.75;6188291;23;20021;-75
2023/04/05 05:38:46;;;;;;;10.10;6.30;;;;;;;-1.05;88.14;102419.97;6189579;23;20018;-75
2023/04/05 05:41:13;;;;;;;7.95;5.82;;;;;;;-1.01;88.18;102420.09;6189187;23;20435;-75
2023/04/05 05:43:39;;;;;;;12.60;6.68;;;;;;;-0.98;87.94;102421.31;6188585;23;20049;-75
2023/04/05 05:46:06;;;;;;;10.10;6.03;;;;;;;-0.93;88.14;102424.50;6189939;23;20081;-75
2023/04/05 05:48:32;;;;;;;8.63;6.03;;;;;;;-0.87;87.58;102427.69;6189461;23;20052;-75
2023/04/05 05:51:00;;;;;;;12.35;6.03;;;;;;;-0.81;87.90;102421.97;6189660;23;20036;-75
2023/04/05 05:53:27;;;;;;;8.57;6.75;;;;;;;-0.74;88.03;102424.03;6190296;23;20018;-75
2023/04/05 05:55:54;;;;;;;9.45;6.30;;;;;;;-0.68;87.76;102425.38;6189768;23;20017;-75
2023/04/05 05:58:21;;;;;;;8.40;6.50;;;;;;;-0.60;87.83;102423.75;6189489;23;20021;-76
2023/04/05 06:00:50;;;;;;;7.28;6.10;;;;;;;-0.55;87.55;102424.34;6189988;23;20017;-75
2023/04/05 06:03:17;;;;;;;11.05;6.63;;;;;;;-0.11;88.50;102430.66;6189509;23;20022;-75
2023/04/05 06:05:58;;;;;;;10.00;6.95;;;;;;;2.35;86.86;102422.38;6190079;23;20018;-75
2023/04/05 06:08:28;;;;;;;10.45;6.95;;;;;;;4.41;77.06;102420.03;6190032;23;20021;-76
2023/04/05 06:10:55;;;;;;;10.30;7.32;;;;;;;5.75;70.50;102431.34;6188228;23;20022;-75
2023/04/05 06:13:21;;;;;;;17.65;7.45;;;;;;;6.64;65.72;102424.03;6189555;23;20044;-75
2023/04/05 06:15:49;;;;;;;10.57;7.55;;;;;;;7.13;62.28;102426.09;6190091;23;20415;-75
2023/04/05 06:18:15;;;;;;;14.75;7.38;;;;;;;7.51;60.49;102432.63;6189423;23;20060;-75
2023/04/05 06:20:43;;;;;;;14.18;7.43;;;;;;;7.73;59.03;102429.97;6189847;23;20442;-75
2023/04/05 06:23:10;;;;;;;12.73;7.25;;;;;;;7.67;58.05;102429.56;6187483;23;20021;-74
2023/04/05 06:25:37;;;;;;;18.55;7.20;;;;;;;7.59;58.25;102434.16;6189916;23;20013;-75
2023/04/05 06:28:05;;;;;;;13.95;8.23;;;;;;;7.44;57.73;102432.59;6189790;23;20013;-75
2023/04/05 06:30:32;;;;;;;14.82;7.72;;;;;;;7.24;58.78;102434.81;6189675;23;20014;-74
2023/04/05 06:32:59;;;;;;;11.70;8.25;;;;;;;7.11;59.13;102435.56;6189887;23;20025;-74
2023/04/05 06:35:26;;;;;;;13.48;8.07;;;;;;;7.02;59.66;102439.31;6189079;23;20072;-74
2023/04/05 06:37:52;;;;;;;15.15;8.40;;;;;;;6.82;59.58;102432.78;6189808;23;20045;-74
2023/04/05 06:40:19;;;;;;;12.57;7.95;;;;;;;6.42;60.72;102433.72;6188172;23;20024;-75
2023/04/05 06:42:46;;;;;;;13.68;8.00;;;;;;;5.90;61.51;102430.38;6189824;23;20028;-73
2023/04/05 06:45:17;;;;;;;13.02;8.32;;;;;;;5.37;62.79;102421.94;6187876;23;20479;-74
2023/04/05 06:47:44;;;;;;;11.00;8.50;;;;;;;5.01;64.83;102424.19;6189803;23;20017;-75
2023/04/05 06:50:10;;;;;;;14.57;9.32;;;;;;;4.96;65.61;102426.41;6188831;23;20406;-73
2023/04/05 06:52:38;;;;;;;18.35;8.95;;;;;;;4.87;66.13;102429.31;6189919;23;20021;-74
2023/04/05 06:55:05;;;;;;;11.57;8.70;;;;;;;4.83;66.63;102435.66;6189770;23;20041;-76
2023/04/05 06:57:31;;;;;;;15.45;8.73;;;;;;;4.86;66.83;102434.94;6190241;23;20104;-75
2023/04/05 06:59:58;;;;;;;13.35;8.65;;;;;;;4.86;67.30;102434.94;6189462;23;20084;-74
2023/04/05 07:02:24;;;;;;;12.90;8.32;;;;;;;4.90;67.16;102431.22;6189366;23;20024;-75
2023/04/05 07:04:52;;;;;;;14.77;8.40;;;;;;;4.99;65.36;102428.31;6187370;23;20895;-75
2023/04/05 07:07:18;;;;;;;8.85;7.93;;;;;;;4.98;64.60;102434.72;6189063;23;20392;-75
2023/04/05 07:09:45;;;;;;;14.75;7.55;;;;;;;4.92;64.43;102430.88;6189885;23;20018;-75
2023/04/05 07:12:11;;;;;;;9.43;7.43;;;;;;;4.94;64.14;102433.91;6189107;23;20017;-73
2023/04/05 07:14:38;;;;;;;11.45;6.93;;;;;;;4.98;63.83;102421.50;6189611;23;20017;-75
2023/04/05 07:17:06;;;;;;;7.30;6.55;;;;;;;4.90;63.24;102428.59;6189278;23;20022;-77
2023/04/05 07:19:32;;;;;;;11.00;7.80;;;;;;;4.88;63.29;102427.41;6188669;23;20388;-76
2023/04/05 07:22:00;;;;;;;8.23;7.10;;;;;;;4.96;62.47;102424.50;6187740;23;20017;-73
2023/04/05 07:24:26;;;;;;;12.00;7.60;;;;;;;5.04;63.42;102430.63;6189233;23;20021;-75
2023/04/05 07:26:52;;;;;;;12.43;7.43;;;;;;;5.18;63.71;102430.81;6189665;23;20017;-73
2023/04/05 07:29:19;;;;;;;14.75;7.47;;;;;;;5.32;62.89;102430.94;6189165;23;20068;-74
2023/04/05 07:31:46;;;;;;;10.00;7.80;;;;;;;5.44;63.07;102418.59;6189568;23;20028;-74
2023/04/05 07:34:12;;;;;;;13.38;8.00;;;;;;;5.52;62.84;102420.97;6188336;23;20071;-76
2023/04/05 07:36:39;;;;;;;12.73;8.20;;;;;;;5.75;63.13;102431.34;6187739;23;20066;-75
2023/04/05 07:39:06;;;;;;;8.82;7.22;;;;;;;5.85;62.65;102416.69;6189106;23;20028;-74
2023/04/05 07:41:34;;;;;;;10.27;7.90;;;;;;;5.92;62.81;102425.47;6188668;23;20017;-74
2023/04/05 07:44:01;;;;;;;13.07;7.90;;;;;;;6.02;63.10;102424.78;6191003;23;20023;-75
2023/04/05 07:46:28;;;;;;;12.75;7.47;;;;;;;6.15;62.06;102421.84;6189321;23;20096;-75
2023/04/05 07:48:55;;;;;;;12.88;7.80;;;;;;;6.16;61.91;102423.38;6188620;23;20069;-74
2023/04/05 07:51:21;;;;;;;10.07;8.02;;;;;;;6.21;61.66;102423.78;6187288;23;20025;-76
2023/04/05 07:53:48;;;;;;;9.07;7.68;;;;;;;6.20;61.44;102419.63;6189526;23;20429;-75
2023/04/05 07:56:15;;;;;;;10.55;8.45;;;;;;;6.41;61.68;102418.97;6188948;23;20017;-75
2023/04/05 07:58:41;;;;;;;12.77;8.43;;;;;;;6.52;61.93;102421.69;6187909;23;20024;-76
2023/04/05 08:01:09;;;;;;;18.20;8.32;;;;;;;6.65;61.42;102414.97;6189357;23;20108;-75
2023/04/05 08:03:38;;;;;;;8.35;7.40;;;;;;;6.79;61.04;102417.69;6189058;23;20017;-76
2023/04/05 08:06:13;;;;;;;8.82;7.65;;;;;;;6.90;60.36;102415.81;6189430;23;20467;-75
2023/04/05 08:08:40;;;;;;;9.60;7.50;;;;;;;7.05;59.75;102419.25;6189827;23;20024;-76
2023/04/05 08:11:07;;;;;;;15.68;8.13;;;;;;;7.16;59.95;102408.72;6189490;23;20045;-75
2023/04/05 08:13:33;;;;;;;9.63;7.72;;;;;;;7.34;60.17;102420.84;6189999;23;20024;-76
2023/04/05 08:16:00;;;;;;;12.43;8.00;;;;;;;7.54;58.68;102412.56;6189965;23;20018;-75
2023/04/05 08:18:27;;;;;;;9.13;7.75;;;;;;;7.73;58.69;102416.72;6188107;23;20024;-76
2023/04/05 08:20:55;;;;;;;8.43;7.13;;;;;;;7.81;57.96;102418.22;6189089;23;20439;-75
2023/04/05 08:23:22;;;;;;;14.25;8.00;;;;;;;7.93;56.51;102423.91;6187608;23;20461;-75
2023/04/05 08:25:49;;;;;;;10.65;7.53;;;;;;;8.11;55.77;102415.16;6189332;23;20431;-76
2023/04/05 08:28:16;;;;;;;15.55;7.35;;;;;;;8.17;55.98;102421.59;6187825;23;20425;-76
2023/04/05 08:30:44;;;;;;;9.18;7.35;;;;;;;8.19;55.71;102421.97;6187259;23;20021;-76
2023/04/05 08:33:11;;;;;;;10.75;7.10;;;;;;;8.24;55.42;102413.63;6187792;23;20076;-76
2023/04/05 08:35:38;;;;;;;7.82;7.03;;;;;;;8.34;54.53;102410.25;6189031;23;20018;-76
2023/04/05 08:38:07;;;;;;;10.77;6.97;;;;;;;8.42;53.88;102411.72;6188740;23;20443;-76
2023/04/05 08:40:45;;;;;;;10.27;6.20;;;;;;;8.52;53.77;102405.63;6189089;23;20308;-75
2023/04/05 08:43:37;;;;;;;7.03;6.35;;;;;;;8.66;53.43;102407.47;6188167;23;20133;-75
2023/04/05 08:46:07;;;;;;;10.18;6.75;;;;;;;8.96;52.48;102396.31;6188122;23;20013;-75
2023/04/05 08:48:38;;;;;;;6.85;6.25;;;;;;;9.03;51.13;102402.38;6189124;23;20064;-75
2023/04/05 08:51:08;;;;;;;9.20;6.40;;;;;;;9.16;51.17;102404.59;6188913;23;20077;-74
2023/04/05 08:53:35;;;;;;;7.38;6.38;;;;;;;9.26;49.81;102403.75;6189089;23;20119;-75
2023/04/05 08:56:02;;;;;;;9.27;6.43;;;;;;;9.26;47.81;102403.75;6188587;23;20410;-75
2023/04/05 08:58:30;;;;;;;9.38;6.25;;;;;;;9.43;48.47;102404.78;6188280;23;20025;-76
2023/04/05 09:00:58;;;;;;;9.55;6.78;;;;;;;9.63;49.06;102397.75;6188293;23;20018;-78
2023/04/05 09:03:30;;;;;;;8.60;7.32;;;;;;;9.79;49.58;102402.59;6188638;23;20013;-76
2023/04/05 09:05:58;;;;;;;9.20;6.45;;;;;;;9.92;47.98;102395.63;6188749;23;20046;-75
2023/04/05 09:08:24;;;;;;;10.32;7.10;;;;;;;9.98;47.37;102400.13;6188306;23;20085;-76
2023/04/05 09:10:51;;;;;;;6.88;6.07;;;;;;;9.96;47.38;102396.38;6188888;23;20025;-75
2023/04/05 09:13:18;;;;;;;9.43;6.70;;;;;;;10.07;46.76;102399.66;6161951;23;20451;-76
2023/04/05 09:15:45;;;;;;;6.50;5.90;;;;;;;10.30;46.91;102394.50;6187998;23;20100;-75
2023/04/05 09:18:12;;;;;;;7.00;5.78;;;;;;;10.45;46.12;102391.66;6188384;23;20017;-76
2023/04/05 09:21:04;;;;;;;6.28;5.63;;;;;;;10.62;45.78;102394.13;6189020;23;20043;-75
2023/04/05 09:23:33;;;;;;;10.20;6.78;;;;;;;10.78;45.39;102398.91;6188623;23;20018;-77
2023/04/05 09:26:16;;;;;;;6.82;5.97;;;;;;;10.98;43.29;102391.75;6188574;23;20014;-77
2023/04/05 09:28:42;;;;;;;6.75;5.85;;;;;;;10.94;41.76;102398.28;6188529;23;20048;-77
2023/04/05 09:31:09;;;;;;;7.43;6.13;;;;;;;10.95;41.29;102397.13;6188341;23;20041;-77
2023/04/05 09:33:36;;;;;;;8.48;6.40;;;;;;;11.06;42.76;102397.75;6190263;23;20019;-75
2023/04/05 09:36:02;;;;;;;11.48;6.03;;;;;;;11.09;41.24;102393.53;6189764;23;20028;-77
2023/04/05 09:38:42;;;;;;;11.85;6.07;;;;;;;11.27;42.67;102396.69;6189520;23;20048;-75
2023/04/05 09:41:12;;;;;;;8.30;6.75;;;;;;;11.41;41.11;102385.81;6189147;23;20025;-76
2023/04/05 09:43:40;;;;;;;7.95;6.97;;;;;;;11.55;41.99;102392.84;6190325;23;20434;-79
2023/04/05 09:46:27;;;;;;;7.03;6.32;;;;;;;11.62;42.98;102390.03;6187913;23;20013;-75
2023/04/05 09:48:53;;;;;;;8.30;6.75;;;;;;;11.70;42.43;102391.41;6188357;23;20013;-74
2023/04/05 09:51:20;;;;;;;10.13;6.60;;;;;;;11.80;40.49;102384.44;6189894;23;20106;-74
2023/04/05 09:54:06;;;;;;;7.40;6.57;;;;;;;11.83;41.90;102380.94;6189941;23;20017;-75
2023/04/05 09:56:35;;;;;;;9.52;7.18;;;;;;;11.85;40.61;102384.72;6190017;23;20018;-75
2023/04/05 09:59:10;;;;;;;14.15;7.03;;;;;;;11.85;40.79;102383.97;6212558;23;20096;-76
2023/04/05 10:01:41;;;;;;;6.97;6.10;;;;;;;11.80;40.14;102379.84;6190473;23;20014;-75
2023/04/05 10:04:08;;;;;;;8.02;6.40;;;;;;;11.86;40.07;102375.56;6190163;23;20463;-74
2023/04/05 10:06:41;;;;;;;9.18;6.22;;;;;;;12.05;39.23;102378.63;6190162;23;20013;-75
2023/04/05 10:09:10;;;;;;;9.07;6.20;;;;;;;12.12;38.95;102373.91;6190718;23;20018;-75
2023/04/05 10:11:37;;;;;;;8.35;5.78;;;;;;;12.19;37.35;102371.13;6190084;23;20018;-75
2023/04/05 10:14:06;;;;;;;8.15;5.78;;;;;;;12.21;37.17;102368.78;6189247;23;20096;-75
2023/04/05 10:16:38;;;;;;;7.25;6.05;;;;;;;12.34;37.08;102367.03;6188236;23;20018;-75
2023/04/05 10:19:15;;;;;;;7.05;6.35;;;;;;;12.33;38.10;102356.75;6189588;23;20021;-75
2023/04/05 10:21:44;;;;;;;7.53;6.82;;;;;;;12.17;38.61;102359.34;6189991;23;20018;-75
2023/04/05 10:24:42;;;;;;;7.03;6.32;;;;;;;12.31;39.38;102351.81;6190074;23;20013;-75
2023/04/05 10:27:16;;;;;;;7.70;6.82;;;;;;;12.40;38.42;102351.25;6188565;23;20017;-76
2023/04/05 10:29:50;;;;;;;10.43;6.50;;;;;;;12.36;38.67;102350.59;6189536;23;20013;-76
2023/04/05 10:32:49;;;;;;;7.15;6.45;;;;;;;12.28;38.98;102355.31;6189666;23;20013;-74
2023/04/05 10:35:21;;;;;;;9.48;6.90;;;;;;;12.26;37.42;102351.53;6183830;23;20021;-75
2023/04/05 10:38:11;;;;;;;7.00;6.20;;;;;;;12.43;38.32;102338.97;6190014;23;20020;-74
2023/04/05 10:40:45;;;;;;;7.43;6.63;;;;;;;12.42;37.35;102340.91;6188277;23;20414;-75
2023/04/05 10:43:18;;;;;;;10.23;6.18;;;;;;;12.35;37.13;102346.41;6187670;23;20018;-77
2023/04/05 10:45:47;;;;;;;8.65;6.47;;;;;;;12.33;37.44;102330.81;6189889;23;20088;-77
2023/04/05 10:49:02;;;;;;;7.80;7.10;;;;;;;12.48;38.51;102333.16;6189111;23;20018;-76
2023/04/05 10:51:30;;;;;;;7.38;6.32;;;;;;;12.47;38.13;102331.66;6102434;23;20074;-75
2023/04/05 10:53:56;;;;;;;7.18;6.40;;;;;;;12.53;36.89;102338.00;6127826;23;20409;-75
2023/04/05 10:56:24;;;;;;;9.32;7.07;;;;;;;12.42;36.61;102327.53;6126433;23;20018;-75
2023/04/05 10:58:52;;;;;;;8.98;7.00;;;;;;;12.41;36.74;102330.63;6103162;23;20368;-76
2023/04/05 11:01:20;;;;;;;9.27;6.72;;;;;;;12.39;36.43;102323.06;6127195;23;20417;-76
2023/04/05 11:03:49;;;;;;;8.30;6.15;;;;;;;12.34;37.13;102321.63;6127317;23;20056;-76
2023/04/05 11:06:24;;;;;;;8.85;6.85;;;;;;;12.33;37.13;102333.47;6127080;23;20431;-77
2023/04/05 11:09:06;;;;;;;7.97;6.78;;;;;;;12.34;36.71;102318.19;6127793;23;20445;-75
2023/04/05 11:11:38;;;;;;;7.95;6.78;;;;;;;12.41;36.28;102312.69;6102179;23;20025;-76
2023/04/05 11:14:18;;;;;;;13.73;7.15;;;;;;;12.45;36.75;102310.69;6127272;23;20026;-76
2023/04/05 11:16:47;;;;;;;6.72;6.20;;;;;;;12.53;36.51;102313.97;6127575;23;20082;-77
2023/04/05 11:19:17;;;;;;;8.68;6.88;;;;;;;12.46;36.77;102308.78;6126912;23;20027;-77
2023/04/05 11:21:44;;;;;;;10.10;7.00;;;;;;;12.41;36.39;102312.69;6127331;23;20093;-77
2023/04/05 11:24:14;;;;;;;7.95;6.90;;;;;;;12.36;36.63;102305.19;6102751;23;20022;-77
2023/04/05 11:26:47;;;;;;;8.20;6.82;;;;;;;12.35;37.45;102299.09;6133330;23;20022;-77
2023/04/05 11:29:14;;;;;;;10.13;6.95;;;;;;;12.33;37.40;102301.44;6189134;23;20044;-77
2023/04/05 11:31:58;;;;;;;9.65;6.97;;;;;;;12.33;37.77;102301.44;6189633;23;20041;-77
2023/04/05 11:34:25;;;;;;;7.22;6.38;;;;;;;12.32;36.90;102291.91;6189190;23;20447;-76
2023/04/05 11:36:51;;;;;;;7.97;6.90;;;;;;;12.30;37.22;102304.91;6189698;23;20025;-77
2023/04/05 11:39:18;;;;;;;9.35;7.22;;;;;;;12.29;36.81;102295.41;6187639;23;20080;-76
2023/04/05 11:41:46;;;;;;;10.75;6.93;;;;;;;12.39;36.81;102299.03;6189666;23;20089;-76